sensor_id;sensor_type;location;lat;lon;timestamp;P1;durP1;ratioP1;P2;durP2;ratioP2
24325;SDS011;12448;45.532;5.290;2023-07-24T00:00:40;12.07;;;6.00;;
24325;SDS011;12448;45.532;5.290;2023-07-24T00:03:06;9.57;;;5.47;;
24325;SDS011;12448;45.532;5.290;2023-07-24T00:05:31;9.32;;;5.30;;
24325;SDS011;12448;45.532;5.290;2023-07-24T00:07:57;16.77;;;6.25;;
24325;SDS011;12448;45.532;5.290;2023-07-24T00:10:23;13.85;;;5.45;;
24325;SDS011;12448;45.532;5.290;2023-07-24T00:12:48;11.38;;;6.35;;
24325;SDS011;12448;45.532;5.290;2023-07-24T00:15:14;10.27;;;5.93;;
24325;SDS011;12448;45.532;5.290;2023-07-24T00:17:39;13.85;;;5.55;;
24325;SDS011;12448;45.532;5.290;2023-07-24T00:20:05;12.52;;;6.20;;
24325;SDS011;12448;45.532;5.290;2023-07-24T00:22:32;16.67;;;6.00;;
24325;SDS011;12448;45.532;5.290;2023-07-24T00:24:57;11.30;;;5.95;;
24325;SDS011;12448;45.532;5.290;2023-07-24T00:27:23;13.45;;;5.85;;
24325;SDS011;12448;45.532;5.290;2023-07-24T00:29:49;10.45;;;6.15;;
24325;SDS011;12448;45.532;5.290;2023-07-24T00:32:15;18.08;;;6.25;;
24325;SDS011;12448;45.532;5.290;2023-07-24T00:34:40;12.77;;;5.72;;
24325;SDS011;12448;45.532;5.290;2023-07-24T00:37:06;12.45;;;5.43;;
24325;SDS011;12448;45.532;5.290;2023-07-24T00:39:32;14.25;;;5.63;;
24325;SDS011;12448;45.532;5.290;2023-07-24T00:41:57;12.23;;;5.82;;
24325;SDS011;12448;45.532;5.290;2023-07-24T00:44:23;17.48;;;6.07;;
24325;SDS011;12448;45.532;5.290;2023-07-24T00:46:49;9.65;;;5.35;;
24325;SDS011;12448;45.532;5.290;2023-07-24T00:49:14;13.00;;;6.10;;
24325;SDS011;12448;45.532;5.290;2023-07-24T00:51:41;9.30;;;5.57;;
24325;SDS011;12448;45.532;5.290;2023-07-24T00:54:06;13.82;;;5.95;;
24325;SDS011;12448;45.532;5.290;2023-07-24T00:56:33;11.93;;;5.80;;
24325;SDS011;12448;45.532;5.290;2023-07-24T00:59:00;11.43;;;6.20;;
24325;SDS011;12448;45.532;5.290;2023-07-24T01:01:26;9.63;;;5.20;;
24325;SDS011;12448;45.532;5.290;2023-07-24T01:03:53;14.65;;;5.50;;
24325;SDS011;12448;45.532;5.290;2023-07-24T01:06:21;11.68;;;6.00;;
24325;SDS011;12448;45.532;5.290;2023-07-24T01:08:47;11.57;;;6.30;;
24325;SDS011;12448;45.532;5.290;2023-07-24T01:11:18;13.82;;;6.25;;
24325;SDS011;12448;45.532;5.290;2023-07-24T01:13:56;14.77;;;6.32;;
24325;SDS011;12448;45.532;5.290;2023-07-24T01:16:26;11.82;;;6.63;;
24325;SDS011;12448;45.532;5.290;2023-07-24T01:19:08;10.02;;;5.40;;
24325;SDS011;12448;45.532;5.290;2023-07-24T01:27:18;10.00;;;5.38;;
24325;SDS011;12448;45.532;5.290;2023-07-24T01:29:45;9.05;;;5.53;;
24325;SDS011;12448;45.532;5.290;2023-07-24T01:32:11;11.63;;;5.65;;
24325;SDS011;12448;45.532;5.290;2023-07-24T01:34:36;8.10;;;4.85;;
24325;SDS011;12448;45.532;5.290;2023-07-24T01:37:02;10.25;;;5.97;;
24325;SDS011;12448;45.532;5.290;2023-07-24T01:39:28;11.82;;;5.78;;
24325;SDS011;12448;45.532;5.290;2023-07-24T01:41:54;13.07;;;5.63;;
24325;SDS011;12448;45.532;5.290;2023-07-24T01:44:19;15.32;;;6.13;;
24325;SDS011;12448;45.532;5.290;2023-07-24T01:46:45;24.67;;;8.15;;
24325;SDS011;12448;45.532;5.290;2023-07-24T01:49:11;12.50;;;6.45;;
24325;SDS011;12448;45.532;5.290;2023-07-24T01:51:36;13.15;;;6.45;;
24325;SDS011;12448;45.532;5.290;2023-07-24T01:54:02;17.85;;;6.78;;
24325;SDS011;12448;45.532;5.290;2023-07-24T01:56:27;13.40;;;6.90;;
24325;SDS011;12448;45.532;5.290;2023-07-24T01:58:53;16.10;;;7.18;;
24325;SDS011;12448;45.532;5.290;2023-07-24T02:01:19;13.73;;;7.35;;
24325;SDS011;12448;45.532;5.290;2023-07-24T02:03:44;15.57;;;6.97;;
24325;SDS011;12448;45.532;5.290;2023-07-24T02:06:10;12.93;;;7.72;;
24325;SDS011;12448;45.532;5.290;2023-07-24T02:08:35;10.88;;;6.88;;
24325;SDS011;12448;45.532;5.290;2023-07-24T02:11:01;14.55;;;7.80;;
24325;SDS011;12448;45.532;5.290;2023-07-24T02:13:26;18.42;;;7.70;;
24325;SDS011;12448;45.532;5.290;2023-07-24T02:15:52;17.02;;;7.97;;
24325;SDS011;12448;45.532;5.290;2023-07-24T02:18:18;17.25;;;7.45;;
24325;SDS011;12448;45.532;5.290;2023-07-24T02:20:50;18.55;;;7.60;;
24325;SDS011;12448;45.532;5.290;2023-07-24T02:23:16;12.75;;;7.35;;
24325;SDS011;12448;45.532;5.290;2023-07-24T02:25:42;13.52;;;7.10;;
24325;SDS011;12448;45.532;5.290;2023-07-24T02:28:08;14.80;;;7.00;;
24325;SDS011;12448;45.532;5.290;2023-07-24T02:30:37;19.27;;;7.53;;
24325;SDS011;12448;45.532;5.290;2023-07-24T02:33:03;10.50;;;6.47;;
24325;SDS011;12448;45.532;5.290;2023-07-24T02:35:29;16.52;;;7.78;;
24325;SDS011;12448;45.532;5.290;2023-07-24T02:37:54;15.15;;;7.28;;
24325;SDS011;12448;45.532;5.290;2023-07-24T02:40:20;13.13;;;7.20;;
24325;SDS011;12448;45.532;5.290;2023-07-24T02:42:45;10.68;;;6.55;;
24325;SDS011;12448;45.532;5.290;2023-07-24T02:45:11;14.35;;;7.10;;
24325;SDS011;12448;45.532;5.290;2023-07-24T02:47:37;11.52;;;6.70;;
24325;SDS011;12448;45.532;5.290;2023-07-24T02:50:03;14.05;;;7.13;;
24325;SDS011;12448;45.532;5.290;2023-07-24T02:52:29;14.43;;;7.10;;
24325;SDS011;12448;45.532;5.290;2023-07-24T02:54:54;19.60;;;7.22;;
24325;SDS011;12448;45.532;5.290;2023-07-24T02:57:20;20.45;;;7.20;;
24325;SDS011;12448;45.532;5.290;2023-07-24T02:59:45;10.75;;;6.80;;
24325;SDS011;12448;45.532;5.290;2023-07-24T03:02:11;11.27;;;7.07;;
24325;SDS011;12448;45.532;5.290;2023-07-24T03:04:37;16.92;;;7.03;;
24325;SDS011;12448;45.532;5.290;2023-07-24T03:07:03;17.00;;;7.63;;
24325;SDS011;12448;45.532;5.290;2023-07-24T03:09:28;12.75;;;6.65;;
24325;SDS011;12448;45.532;5.290;2023-07-24T03:11:54;10.75;;;6.40;;
24325;SDS011;12448;45.532;5.290;2023-07-24T03:14:19;9.80;;;6.75;;
24325;SDS011;12448;45.532;5.290;2023-07-24T03:16:45;16.33;;;6.40;;
24325;SDS011;12448;45.532;5.290;2023-07-24T03:19:10;13.30;;;6.95;;
24325;SDS011;12448;45.532;5.290;2023-07-24T03:21:36;12.95;;;6.53;;
24325;SDS011;12448;45.532;5.290;2023-07-24T03:24:02;13.85;;;6.75;;
24325;SDS011;12448;45.532;5.290;2023-07-24T03:26:27;13.55;;;7.10;;
24325;SDS011;12448;45.532;5.290;2023-07-24T03:28:53;12.45;;;7.35;;
24325;SDS011;12448;45.532;5.290;2023-07-24T03:31:18;14.27;;;6.97;;
24325;SDS011;12448;45.532;5.290;2023-07-24T03:33:44;15.27;;;7.20;;
24325;SDS011;12448;45.532;5.290;2023-07-24T03:36:10;14.18;;;6.90;;
24325;SDS011;12448;45.532;5.290;2023-07-24T03:38:35;16.30;;;7.30;;
24325;SDS011;12448;45.532;5.290;2023-07-24T03:41:01;12.20;;;6.80;;
24325;SDS011;12448;45.532;5.290;2023-07-24T03:43:26;12.65;;;7.07;;
24325;SDS011;12448;45.532;5.290;2023-07-24T03:45:52;15.55;;;7.35;;
24325;SDS011;12448;45.532;5.290;2023-07-24T03:48:17;15.52;;;7.35;;
24325;SDS011;12448;45.532;5.290;2023-07-24T03:50:43;15.60;;;6.75;;
24325;SDS011;12448;45.532;5.290;2023-07-24T03:53:09;15.05;;;7.95;;
24325;SDS011;12448;45.532;5.290;2023-07-24T03:55:34;14.40;;;6.78;;
24325;SDS011;12448;45.532;5.290;2023-07-24T03:58:00;17.48;;;7.80;;
24325;SDS011;12448;45.532;5.290;2023-07-24T04:00:26;12.00;;;6.82;;
24325;SDS011;12448;45.532;5.290;2023-07-24T04:02:51;13.13;;;6.70;;
24325;SDS011;12448;45.532;5.290;2023-07-24T04:05:17;13.18;;;7.15;;
24325;SDS011;12448;45.532;5.290;2023-07-24T04:07:42;12.02;;;6.93;;
24325;SDS011;12448;45.532;5.290;2023-07-24T04:10:08;11.82;;;6.90;;
24325;SDS011;12448;45.532;5.290;2023-07-24T04:12:34;11.40;;;6.30;;
24325;SDS011;12448;45.532;5.290;2023-07-24T04:14:59;13.43;;;6.70;;
24325;SDS011;12448;45.532;5.290;2023-07-24T04:17:25;15.15;;;7.50;;
24325;SDS011;12448;45.532;5.290;2023-07-24T04:19:50;16.42;;;6.85;;
24325;SDS011;12448;45.532;5.290;2023-07-24T04:22:16;17.08;;;7.38;;
24325;SDS011;12448;45.532;5.290;2023-07-24T04:24:42;12.32;;;7.30;;
24325;SDS011;12448;45.532;5.290;2023-07-24T04:27:07;12.50;;;6.95;;
24325;SDS011;12448;45.532;5.290;2023-07-24T04:29:33;21.65;;;7.95;;
24325;SDS011;12448;45.532;5.290;2023-07-24T04:31:58;15.07;;;7.25;;
24325;SDS011;12448;45.532;5.290;2023-07-24T04:34:24;15.13;;;7.38;;
24325;SDS011;12448;45.532;5.290;2023-07-24T04:36:49;14.32;;;6.70;;
24325;SDS011;12448;45.532;5.290;2023-07-24T04:39:15;10.20;;;6.85;;
24325;SDS011;12448;45.532;5.290;2023-07-24T04:41:40;11.55;;;7.47;;
24325;SDS011;12448;45.532;5.290;2023-07-24T04:44:06;13.65;;;7.00;;
24325;SDS011;12448;45.532;5.290;2023-07-24T04:46:32;13.18;;;7.30;;
24325;SDS011;12448;45.532;5.290;2023-07-24T04:48:57;12.75;;;7.00;;
24325;SDS011;12448;45.532;5.290;2023-07-24T04:51:23;14.25;;;6.80;;
24325;SDS011;12448;45.532;5.290;2023-07-24T04:53:48;15.13;;;7.03;;
24325;SDS011;12448;45.532;5.290;2023-07-24T04:56:14;12.90;;;6.63;;
24325;SDS011;12448;45.532;5.290;2023-07-24T04:58:40;16.40;;;7.25;;
24325;SDS011;12448;45.532;5.290;2023-07-24T05:01:05;15.30;;;7.07;;
24325;SDS011;12448;45.532;5.290;2023-07-24T05:03:31;11.48;;;6.75;;
24325;SDS011;12448;45.532;5.290;2023-07-24T05:05:57;19.83;;;7.88;;
24325;SDS011;12448;45.532;5.290;2023-07-24T05:08:23;11.35;;;7.50;;
24325;SDS011;12448;45.532;5.290;2023-07-24T05:10:55;11.65;;;7.32;;
24325;SDS011;12448;45.532;5.290;2023-07-24T05:13:22;15.48;;;7.80;;
24325;SDS011;12448;45.532;5.290;2023-07-24T05:15:47;11.82;;;7.50;;
24325;SDS011;12448;45.532;5.290;2023-07-24T05:18:13;13.18;;;6.70;;
24325;SDS011;12448;45.532;5.290;2023-07-24T05:20:42;15.85;;;7.53;;
24325;SDS011;12448;45.532;5.290;2023-07-24T05:23:09;13.15;;;7.38;;
24325;SDS011;12448;45.532;5.290;2023-07-24T05:25:34;13.85;;;7.47;;
24325;SDS011;12448;45.532;5.290;2023-07-24T05:28:00;15.00;;;7.10;;
24325;SDS011;12448;45.532;5.290;2023-07-24T05:30:26;11.20;;;7.32;;
24325;SDS011;12448;45.532;5.290;2023-07-24T05:32:51;16.40;;;7.57;;
24325;SDS011;12448;45.532;5.290;2023-07-24T05:35:17;17.33;;;7.53;;
24325;SDS011;12448;45.532;5.290;2023-07-24T05:37:42;13.07;;;7.47;;
24325;SDS011;12448;45.532;5.290;2023-07-24T05:40:08;10.60;;;7.50;;
24325;SDS011;12448;45.532;5.290;2023-07-24T05:42:34;14.48;;;7.85;;
24325;SDS011;12448;45.532;5.290;2023-07-24T05:45:06;13.82;;;7.05;;
24325;SDS011;12448;45.532;5.290;2023-07-24T05:47:33;11.25;;;7.18;;
24325;SDS011;12448;45.532;5.290;2023-07-24T05:49:58;13.40;;;6.90;;
24325;SDS011;12448;45.532;5.290;2023-07-24T05:52:24;16.10;;;7.68;;
24325;SDS011;12448;45.532;5.290;2023-07-24T05:54:50;10.32;;;6.95;;
24325;SDS011;12448;45.532;5.290;2023-07-24T05:57:15;10.50;;;6.75;;
24325;SDS011;12448;45.532;5.290;2023-07-24T05:59:41;14.05;;;7.32;;
24325;SDS011;12448;45.532;5.290;2023-07-24T06:02:06;13.25;;;7.65;;
24325;SDS011;12448;45.532;5.290;2023-07-24T06:04:33;13.85;;;7.78;;
24325;SDS011;12448;45.532;5.290;2023-07-24T06:06:59;13.80;;;7.60;;
24325;SDS011;12448;45.532;5.290;2023-07-24T06:09:24;14.27;;;7.65;;
24325;SDS011;12448;45.532;5.290;2023-07-24T06:11:50;15.05;;;7.80;;
24325;SDS011;12448;45.532;5.290;2023-07-24T06:14:15;10.23;;;6.75;;
24325;SDS011;12448;45.532;5.290;2023-07-24T06:16:41;11.65;;;7.20;;
24325;SDS011;12448;45.532;5.290;2023-07-24T06:19:06;17.05;;;7.68;;
24325;SDS011;12448;45.532;5.290;2023-07-24T06:21:32;13.05;;;7.43;;
24325;SDS011;12448;45.532;5.290;2023-07-24T06:23:58;13.45;;;7.32;;
24325;SDS011;12448;45.532;5.290;2023-07-24T06:26:23;15.18;;;7.57;;
24325;SDS011;12448;45.532;5.290;2023-07-24T06:28:49;11.65;;;6.82;;
24325;SDS011;12448;45.532;5.290;2023-07-24T06:31:14;13.18;;;7.28;;
24325;SDS011;12448;45.532;5.290;2023-07-24T06:33:40;15.25;;;6.63;;
24325;SDS011;12448;45.532;5.290;2023-07-24T06:36:08;13.70;;;7.35;;
24325;SDS011;12448;45.532;5.290;2023-07-24T06:38:35;15.85;;;7.35;;
24325;SDS011;12448;45.532;5.290;2023-07-24T06:41:01;12.20;;;7.18;;
24325;SDS011;12448;45.532;5.290;2023-07-24T06:43:27;15.35;;;7.10;;
24325;SDS011;12448;45.532;5.290;2023-07-24T06:45:53;12.63;;;7.45;;
24325;SDS011;12448;45.532;5.290;2023-07-24T06:48:19;13.30;;;7.47;;
24325;SDS011;12448;45.532;5.290;2023-07-24T06:50:44;13.65;;;7.03;;
24325;SDS011;12448;45.532;5.290;2023-07-24T06:53:10;14.30;;;6.85;;
24325;SDS011;12448;45.532;5.290;2023-07-24T06:55:36;11.82;;;7.50;;
24325;SDS011;12448;45.532;5.290;2023-07-24T06:58:01;14.45;;;7.20;;
24325;SDS011;12448;45.532;5.290;2023-07-24T07:00:27;12.07;;;7.78;;
24325;SDS011;12448;45.532;5.290;2023-07-24T07:02:52;13.07;;;6.95;;
24325;SDS011;12448;45.532;5.290;2023-07-24T07:05:18;11.25;;;7.35;;
24325;SDS011;12448;45.532;5.290;2023-07-24T07:07:44;12.30;;;7.40;;
24325;SDS011;12448;45.532;5.290;2023-07-24T07:10:09;13.82;;;7.43;;
24325;SDS011;12448;45.532;5.290;2023-07-24T07:12:35;12.18;;;7.10;;
24325;SDS011;12448;45.532;5.290;2023-07-24T07:15:01;12.45;;;7.10;;
24325;SDS011;12448;45.532;5.290;2023-07-24T07:17:26;11.35;;;7.35;;
24325;SDS011;12448;45.532;5.290;2023-07-24T07:19:52;13.27;;;7.10;;
24325;SDS011;12448;45.532;5.290;2023-07-24T07:22:17;12.73;;;7.28;;
24325;SDS011;12448;45.532;5.290;2023-07-24T07:24:43;12.38;;;6.90;;
24325;SDS011;12448;45.532;5.290;2023-07-24T07:27:09;13.32;;;7.32;;
24325;SDS011;12448;45.532;5.290;2023-07-24T07:29:34;16.13;;;7.53;;
24325;SDS011;12448;45.532;5.290;2023-07-24T07:32:00;13.48;;;7.20;;
24325;SDS011;12448;45.532;5.290;2023-07-24T07:34:26;13.15;;;7.30;;
24325;SDS011;12448;45.532;5.290;2023-07-24T07:36:51;12.63;;;7.30;;
24325;SDS011;12448;45.532;5.290;2023-07-24T07:39:17;12.55;;;7.55;;
24325;SDS011;12448;45.532;5.290;2023-07-24T07:41:42;15.50;;;7.20;;
24325;SDS011;12448;45.532;5.290;2023-07-24T07:44:08;11.38;;;7.30;;
24325;SDS011;12448;45.532;5.290;2023-07-24T07:46:34;13.00;;;6.95;;
24325;SDS011;12448;45.532;5.290;2023-07-24T07:48:59;12.52;;;6.88;;
24325;SDS011;12448;45.532;5.290;2023-07-24T07:51:25;17.30;;;7.28;;
24325;SDS011;12448;45.532;5.290;2023-07-24T07:53:51;14.30;;;7.10;;
24325;SDS011;12448;45.532;5.290;2023-07-24T07:56:17;16.10;;;7.88;;
24325;SDS011;12448;45.532;5.290;2023-07-24T07:58:43;13.73;;;6.70;;
24325;SDS011;12448;45.532;5.290;2023-07-24T08:01:09;8.98;;;6.30;;
24325;SDS011;12448;45.532;5.290;2023-07-24T08:03:35;13.98;;;7.15;;
24325;SDS011;12448;45.532;5.290;2023-07-24T08:06:00;11.45;;;6.90;;
24325;SDS011;12448;45.532;5.290;2023-07-24T08:08:26;12.35;;;7.57;;
24325;SDS011;12448;45.532;5.290;2023-07-24T08:10:52;14.30;;;7.40;;
24325;SDS011;12448;45.532;5.290;2023-07-24T08:13:17;11.63;;;7.30;;
24325;SDS011;12448;45.532;5.290;2023-07-24T08:15:43;13.80;;;7.55;;
24325;SDS011;12448;45.532;5.290;2023-07-24T08:18:08;13.30;;;7.63;;
24325;SDS011;12448;45.532;5.290;2023-07-24T08:20:37;12.70;;;7.13;;
24325;SDS011;12448;45.532;5.290;2023-07-24T08:23:03;14.48;;;7.57;;
24325;SDS011;12448;45.532;5.290;2023-07-24T08:25:29;12.45;;;7.75;;
24325;SDS011;12448;45.532;5.290;2023-07-24T08:27:55;14.07;;;8.10;;
24325;SDS011;12448;45.532;5.290;2023-07-24T08:30:21;16.33;;;7.70;;
24325;SDS011;12448;45.532;5.290;2023-07-24T08:32:46;18.25;;;8.25;;
24325;SDS011;12448;45.532;5.290;2023-07-24T08:35:14;12.93;;;7.45;;
24325;SDS011;12448;45.532;5.290;2023-07-24T08:37:42;10.23;;;7.85;;
24325;SDS011;12448;45.532;5.290;2023-07-24T08:40:09;13.40;;;6.95;;
24325;SDS011;12448;45.532;5.290;2023-07-24T08:42:37;14.10;;;7.80;;
24325;SDS011;12448;45.532;5.290;2023-07-24T08:45:07;12.77;;;7.45;;
24325;SDS011;12448;45.532;5.290;2023-07-24T08:47:36;13.05;;;7.45;;
24325;SDS011;12448;45.532;5.290;2023-07-24T08:50:04;15.60;;;7.88;;
24325;SDS011;12448;45.532;5.290;2023-07-24T08:52:30;15.35;;;7.85;;
24325;SDS011;12448;45.532;5.290;2023-07-24T08:54:57;17.83;;;7.32;;
24325;SDS011;12448;45.532;5.290;2023-07-24T08:57:24;13.18;;;7.45;;
24325;SDS011;12448;45.532;5.290;2023-07-24T08:59:49;11.65;;;8.13;;
24325;SDS011;12448;45.532;5.290;2023-07-24T09:02:15;10.60;;;7.28;;
24325;SDS011;12448;45.532;5.290;2023-07-24T09:04:40;13.88;;;7.43;;
24325;SDS011;12448;45.532;5.290;2023-07-24T09:07:06;16.30;;;8.35;;
24325;SDS011;12448;45.532;5.290;2023-07-24T09:09:32;13.02;;;8.05;;
24325;SDS011;12448;45.532;5.290;2023-07-24T09:11:57;12.50;;;7.75;;
24325;SDS011;12448;45.532;5.290;2023-07-24T09:14:26;10.20;;;7.25;;
24325;SDS011;12448;45.532;5.290;2023-07-24T09:17:05;13.43;;;8.07;;
24325;SDS011;12448;45.532;5.290;2023-07-24T09:19:32;13.65;;;8.02;;
24325;SDS011;12448;45.532;5.290;2023-07-24T09:22:11;13.20;;;8.05;;
24325;SDS011;12448;45.532;5.290;2023-07-24T09:24:48;15.63;;;7.90;;
24325;SDS011;12448;45.532;5.290;2023-07-24T09:27:18;12.27;;;7.55;;
24325;SDS011;12448;45.532;5.290;2023-07-24T09:29:44;12.30;;;7.50;;
24325;SDS011;12448;45.532;5.290;2023-07-24T09:32:24;13.80;;;7.15;;
24325;SDS011;12448;45.532;5.290;2023-07-24T09:34:51;13.63;;;7.40;;
24325;SDS011;12448;45.532;5.290;2023-07-24T09:37:33;11.23;;;6.68;;
24325;SDS011;12448;45.532;5.290;2023-07-24T09:39:59;12.50;;;6.22;;
24325;SDS011;12448;45.532;5.290;2023-07-24T09:42:31;10.02;;;6.50;;
24325;SDS011;12448;45.532;5.290;2023-07-24T09:44:58;12.65;;;7.07;;
24325;SDS011;12448;45.532;5.290;2023-07-24T09:47:25;12.30;;;6.60;;
24325;SDS011;12448;45.532;5.290;2023-07-24T09:49:51;13.93;;;6.30;;
24325;SDS011;12448;45.532;5.290;2023-07-24T09:52:18;10.57;;;6.30;;
24325;SDS011;12448;45.532;5.290;2023-07-24T09:57:36;12.00;;;6.20;;
24325;SDS011;12448;45.532;5.290;2023-07-24T10:00:03;9.57;;;5.82;;
24325;SDS011;12448;45.532;5.290;2023-07-24T10:02:29;19.98;;;6.00;;
24325;SDS011;12448;45.532;5.290;2023-07-24T10:04:55;11.23;;;6.57;;
24325;SDS011;12448;45.532;5.290;2023-07-24T10:07:22;16.90;;;6.55;;
24325;SDS011;12448;45.532;5.290;2023-07-24T10:09:49;11.85;;;6.22;;
24325;SDS011;12448;45.532;5.290;2023-07-24T10:12:16;14.10;;;6.10;;
24325;SDS011;12448;45.532;5.290;2023-07-24T10:14:43;11.70;;;6.18;;
24325;SDS011;12448;45.532;5.290;2023-07-24T10:17:10;13.77;;;6.57;;
24325;SDS011;12448;45.532;5.290;2023-07-24T10:19:40;13.68;;;6.43;;
24325;SDS011;12448;45.532;5.290;2023-07-24T10:22:09;11.48;;;6.53;;
24325;SDS011;12448;45.532;5.290;2023-07-24T10:24:42;13.30;;;6.40;;
24325;SDS011;12448;45.532;5.290;2023-07-24T10:27:08;15.52;;;6.18;;
24325;SDS011;12448;45.532;5.290;2023-07-24T10:29:34;9.52;;;5.50;;
24325;SDS011;12448;45.532;5.290;2023-07-24T10:32:01;14.05;;;6.95;;
24325;SDS011;12448;45.532;5.290;2023-07-24T10:34:36;15.23;;;6.35;;
24325;SDS011;12448;45.532;5.290;2023-07-24T10:37:02;13.00;;;5.65;;
24325;SDS011;12448;45.532;5.290;2023-07-24T10:39:37;10.43;;;5.97;;
24325;SDS011;12448;45.532;5.290;2023-07-24T10:42:10;8.68;;;5.78;;
24325;SDS011;12448;45.532;5.290;2023-07-24T10:44:36;11.07;;;6.20;;
24325;SDS011;12448;45.532;5.290;2023-07-24T10:47:02;9.75;;;6.13;;
24325;SDS011;12448;45.532;5.290;2023-07-24T10:49:28;10.52;;;5.55;;
24325;SDS011;12448;45.532;5.290;2023-07-24T10:51:57;9.32;;;5.82;;
24325;SDS011;12448;45.532;5.290;2023-07-24T10:54:24;12.48;;;5.97;;
24325;SDS011;12448;45.532;5.290;2023-07-24T10:56:49;8.48;;;5.70;;
24325;SDS011;12448;45.532;5.290;2023-07-24T10:59:22;8.98;;;6.13;;
24325;SDS011;12448;45.532;5.290;2023-07-24T11:01:48;9.77;;;5.72;;
24325;SDS011;12448;45.532;5.290;2023-07-24T11:04:13;12.55;;;6.22;;
24325;SDS011;12448;45.532;5.290;2023-07-24T11:06:39;11.45;;;5.80;;
24325;SDS011;12448;45.532;5.290;2023-07-24T11:09:05;11.45;;;6.70;;
24325;SDS011;12448;45.532;5.290;2023-07-24T11:11:31;13.60;;;6.28;;
24325;SDS011;12448;45.532;5.290;2023-07-24T11:13:57;11.55;;;6.03;;
24325;SDS011;12448;45.532;5.290;2023-07-24T11:16:23;9.32;;;5.90;;
24325;SDS011;12448;45.532;5.290;2023-07-24T11:18:49;13.55;;;5.97;;
24325;SDS011;12448;45.532;5.290;2023-07-24T11:21:20;16.60;;;6.45;;
24325;SDS011;12448;45.532;5.290;2023-07-24T11:23:48;10.65;;;6.15;;
24325;SDS011;12448;45.532;5.290;2023-07-24T11:26:23;10.60;;;6.35;;
24325;SDS011;12448;45.532;5.290;2023-07-24T11:28:50;9.00;;;5.50;;
24325;SDS011;12448;45.532;5.290;2023-07-24T11:31:17;14.00;;;5.75;;
24325;SDS011;12448;45.532;5.290;2023-07-24T11:33:46;14.55;;;5.95;;
24325;SDS011;12448;45.532;5.290;2023-07-24T11:36:13;11.25;;;6.53;;
24325;SDS011;12448;45.532;5.290;2023-07-24T11:38:39;8.32;;;5.35;;
24325;SDS011;12448;45.532;5.290;2023-07-24T11:41:04;12.10;;;6.25;;
24325;SDS011;12448;45.532;5.290;2023-07-24T11:43:31;14.73;;;5.97;;
24325;SDS011;12448;45.532;5.290;2023-07-24T11:45:56;15.60;;;5.90;;
24325;SDS011;12448;45.532;5.290;2023-07-24T11:48:23;10.05;;;6.30;;
24325;SDS011;12448;45.532;5.290;2023-07-24T11:50:50;10.07;;;5.75;;
24325;SDS011;12448;45.532;5.290;2023-07-24T11:53:21;11.85;;;5.82;;
24325;SDS011;12448;45.532;5.290;2023-07-24T11:55:52;10.83;;;5.97;;
24325;SDS011;12448;45.532;5.290;2023-07-24T11:58:37;10.40;;;5.57;;
24325;SDS011;12448;45.532;5.290;2023-07-24T12:01:03;13.07;;;6.15;;
24325;SDS011;12448;45.532;5.290;2023-07-24T12:03:28;12.50;;;6.43;;
24325;SDS011;12448;45.532;5.290;2023-07-24T12:05:54;10.73;;;6.18;;
24325;SDS011;12448;45.532;5.290;2023-07-24T12:08:21;8.88;;;6.03;;
24325;SDS011;12448;45.532;5.290;2023-07-24T12:10:55;13.98;;;6.07;;
24325;SDS011;12448;45.532;5.290;2023-07-24T12:13:20;12.40;;;5.82;;
24325;SDS011;12448;45.532;5.290;2023-07-24T12:15:46;12.00;;;5.95;;
24325;SDS011;12448;45.532;5.290;2023-07-24T12:18:12;10.38;;;5.70;;
24325;SDS011;12448;45.532;5.290;2023-07-24T12:20:38;12.07;;;6.55;;
24325;SDS011;12448;45.532;5.290;2023-07-24T12:23:05;11.60;;;5.78;;
24325;SDS011;12448;45.532;5.290;2023-07-24T12:25:30;14.18;;;6.43;;
24325;SDS011;12448;45.532;5.290;2023-07-24T12:27:56;14.20;;;6.57;;
24325;SDS011;12448;45.532;5.290;2023-07-24T12:30:21;12.02;;;6.43;;
24325;SDS011;12448;45.532;5.290;2023-07-24T12:32:47;9.63;;;6.38;;
24325;SDS011;12448;45.532;5.290;2023-07-24T12:35:13;11.80;;;5.82;;
24325;SDS011;12448;45.532;5.290;2023-07-24T12:37:38;12.77;;;7.07;;
24325;SDS011;12448;45.532;5.290;2023-07-24T12:40:05;12.82;;;7.07;;
24325;SDS011;12448;45.532;5.290;2023-07-24T12:42:31;12.98;;;6.43;;
24325;SDS011;12448;45.532;5.290;2023-07-24T12:44:56;15.25;;;7.07;;
24325;SDS011;12448;45.532;5.290;2023-07-24T12:47:23;14.68;;;7.35;;
24325;SDS011;12448;45.532;5.290;2023-07-24T12:49:48;18.20;;;7.30;;
24325;SDS011;12448;45.532;5.290;2023-07-24T12:52:14;18.27;;;8.13;;
24325;SDS011;12448;45.532;5.290;2023-07-24T12:54:40;20.98;;;8.38;;
24325;SDS011;12448;45.532;5.290;2023-07-24T12:57:05;23.20;;;9.55;;
24325;SDS011;12448;45.532;5.290;2023-07-24T12:59:31;18.85;;;9.40;;
24325;SDS011;12448;45.532;5.290;2023-07-24T13:01:56;18.33;;;9.55;;
24325;SDS011;12448;45.532;5.290;2023-07-24T13:04:23;20.15;;;9.18;;
24325;SDS011;12448;45.532;5.290;2023-07-24T13:06:48;15.88;;;7.22;;
24325;SDS011;12448;45.532;5.290;2023-07-24T13:09:14;13.77;;;7.28;;
24325;SDS011;12448;45.532;5.290;2023-07-24T13:11:40;12.00;;;7.45;;
24325;SDS011;12448;45.532;5.290;2023-07-24T13:14:05;12.90;;;7.75;;
24325;SDS011;12448;45.532;5.290;2023-07-24T13:16:31;11.95;;;7.97;;
24325;SDS011;12448;45.532;5.290;2023-07-24T13:18:57;15.52;;;9.35;;
24325;SDS011;12448;45.532;5.290;2023-07-24T13:21:22;17.63;;;11.13;;
24325;SDS011;12448;45.532;5.290;2023-07-24T13:23:48;17.30;;;10.80;;
24325;SDS011;12448;45.532;5.290;2023-07-24T13:26:14;16.60;;;10.63;;
24325;SDS011;12448;45.532;5.290;2023-07-24T13:28:40;21.35;;;11.13;;
24325;SDS011;12448;45.532;5.290;2023-07-24T13:31:18;17.95;;;10.30;;
24325;SDS011;12448;45.532;5.290;2023-07-24T13:33:45;13.73;;;9.55;;
24325;SDS011;12448;45.532;5.290;2023-07-24T13:36:10;18.73;;;9.82;;
24325;SDS011;12448;45.532;5.290;2023-07-24T13:38:36;15.80;;;8.73;;
24325;SDS011;12448;45.532;5.290;2023-07-24T13:41:02;17.83;;;8.98;;
24325;SDS011;12448;45.532;5.290;2023-07-24T13:43:29;17.80;;;9.55;;
24325;SDS011;12448;45.532;5.290;2023-07-24T13:45:55;20.55;;;10.18;;
24325;SDS011;12448;45.532;5.290;2023-07-24T13:48:21;18.63;;;9.75;;
24325;SDS011;12448;45.532;5.290;2023-07-24T13:50:47;17.05;;;9.48;;
24325;SDS011;12448;45.532;5.290;2023-07-24T13:53:13;16.50;;;9.15;;
24325;SDS011;12448;45.532;5.290;2023-07-24T13:55:38;18.90;;;8.15;;
24325;SDS011;12448;45.532;5.290;2023-07-24T13:58:04;18.02;;;7.72;;
24325;SDS011;12448;45.532;5.290;2023-07-24T14:00:29;17.33;;;8.55;;
24325;SDS011;12448;45.532;5.290;2023-07-24T14:02:55;12.75;;;7.43;;
24325;SDS011;12448;45.532;5.290;2023-07-24T14:05:20;15.50;;;7.45;;
24325;SDS011;12448;45.532;5.290;2023-07-24T14:07:46;12.25;;;7.63;;
24325;SDS011;12448;45.532;5.290;2023-07-24T14:10:12;13.63;;;6.57;;
24325;SDS011;12448;45.532;5.290;2023-07-24T14:12:37;10.75;;;7.10;;
24325;SDS011;12448;45.532;5.290;2023-07-24T14:15:03;11.55;;;6.60;;
24325;SDS011;12448;45.532;5.290;2023-07-24T14:17:29;11.18;;;7.07;;
24325;SDS011;12448;45.532;5.290;2023-07-24T14:19:55;11.35;;;7.20;;
24325;SDS011;12448;45.532;5.290;2023-07-24T14:22:20;12.20;;;6.30;;
24325;SDS011;12448;45.532;5.290;2023-07-24T14:24:46;11.13;;;6.60;;
24325;SDS011;12448;45.532;5.290;2023-07-24T14:27:15;11.38;;;6.38;;
24325;SDS011;12448;45.532;5.290;2023-07-24T14:29:40;11.77;;;6.18;;
24325;SDS011;12448;45.532;5.290;2023-07-24T14:32:06;11.43;;;7.22;;
24325;SDS011;12448;45.532;5.290;2023-07-24T14:34:32;14.07;;;6.93;;
24325;SDS011;12448;45.532;5.290;2023-07-24T14:36:58;13.23;;;6.75;;
24325;SDS011;12448;45.532;5.290;2023-07-24T14:39:24;14.10;;;6.93;;